sensor_id;sensor_type;location;lat;lon;timestamp;P1;durP1;ratioP1;P2;durP2;ratioP2
44189;SDS011;29856;52.144;5.430;2023-04-24T00:01:47;1.98;;;1.20;;
44189;SDS011;29856;52.144;5.430;2023-04-24T00:04:13;0.90;;;0.90;;
44189;SDS011;29856;52.144;5.430;2023-04-24T00:06:39;0.98;;;0.90;;
44189;SDS011;29856;52.144;5.430;2023-04-24T00:09:04;2.35;;;0.82;;
44189;SDS011;29856;52.144;5.430;2023-04-24T00:11:30;3.00;;;1.00;;
44189;SDS011;29856;52.144;5.430;2023-04-24T00:13:56;1.65;;;0.65;;
44189;SDS011;29856;52.144;5.430;2023-04-24T00:16:21;0.70;;;0.70;;
44189;SDS011;29856;52.144;5.430;2023-04-24T00:18:47;1.20;;;0.90;;
44189;SDS011;29856;52.144;5.430;2023-04-24T00:21:13;1.33;;;0.88;;
44189;SDS011;29856;52.144;5.430;2023-04-24T00:23:39;1.42;;;1.10;;
44189;SDS011;29856;52.144;5.430;2023-04-24T00:26:05;1.35;;;1.20;;
44189;SDS011;29856;52.144;5.430;2023-04-24T00:28:30;1.38;;;1.27;;
44189;SDS011;29856;52.144;5.430;2023-04-24T00:30:56;1.52;;;1.42;;
44189;SDS011;29856;52.144;5.430;2023-04-24T00:33:21;1.58;;;1.48;;
44189;SDS011;29856;52.144;5.430;2023-04-24T00:35:46;1.50;;;1.40;;
44189;SDS011;29856;52.144;5.430;2023-04-24T00:38:12;1.50;;;1.40;;
44189;SDS011;29856;52.144;5.430;2023-04-24T00:40:37;2.13;;;1.40;;
44189;SDS011;29856;52.144;5.430;2023-04-24T00:43:03;1.30;;;1.30;;
44189;SDS011;29856;52.144;5.430;2023-04-24T00:45:28;1.98;;;1.50;;
44189;SDS011;29856;52.144;5.430;2023-04-24T00:47:54;1.50;;;1.40;;
44189;SDS011;29856;52.144;5.430;2023-04-24T00:50:20;2.60;;;1.50;;
44189;SDS011;29856;52.144;5.430;2023-04-24T00:52:46;2.13;;;1.80;;
44189;SDS011;29856;52.144;5.430;2023-04-24T00:55:11;2.67;;;1.73;;
44189;SDS011;29856;52.144;5.430;2023-04-24T00:57:37;3.15;;;2.08;;
44189;SDS011;29856;52.144;5.430;2023-04-24T01:00:04;2.72;;;1.88;;
44189;SDS011;29856;52.144;5.430;2023-04-24T01:02:31;5.10;;;2.00;;
44189;SDS011;29856;52.144;5.430;2023-04-24T01:04:57;3.17;;;1.98;;
44189;SDS011;29856;52.144;5.430;2023-04-24T01:07:22;2.75;;;2.20;;
44189;SDS011;29856;52.144;5.430;2023-04-24T01:09:48;2.38;;;2.10;;
44189;SDS011;29856;52.144;5.430;2023-04-24T01:12:14;2.67;;;2.30;;
44189;SDS011;29856;52.144;5.430;2023-04-24T01:14:40;3.70;;;2.30;;
44189;SDS011;29856;52.144;5.430;2023-04-24T01:17:05;2.70;;;2.45;;
44189;SDS011;29856;52.144;5.430;2023-04-24T01:19:31;3.15;;;2.63;;
44189;SDS011;29856;52.144;5.430;2023-04-24T01:21:58;3.22;;;2.92;;
44189;SDS011;29856;52.144;5.430;2023-04-24T01:24:25;4.72;;;3.53;;
44189;SDS011;29856;52.144;5.430;2023-04-24T01:26:51;4.35;;;3.40;;
44189;SDS011;29856;52.144;5.430;2023-04-24T01:29:17;3.95;;;3.17;;
44189;SDS011;29856;52.144;5.430;2023-04-24T01:31:42;4.15;;;3.60;;
44189;SDS011;29856;52.144;5.430;2023-04-24T01:34:08;3.92;;;3.47;;
44189;SDS011;29856;52.144;5.430;2023-04-24T01:36:34;3.58;;;3.28;;
44189;SDS011;29856;52.144;5.430;2023-04-24T01:38:59;4.15;;;3.30;;
44189;SDS011;29856;52.144;5.430;2023-04-24T01:41:25;3.70;;;3.33;;
44189;SDS011;29856;52.144;5.430;2023-04-24T01:43:51;5.45;;;4.32;;
44189;SDS011;29856;52.144;5.430;2023-04-24T01:46:17;4.45;;;3.63;;
44189;SDS011;29856;52.144;5.430;2023-04-24T01:48:42;4.03;;;3.38;;
44189;SDS011;29856;52.144;5.430;2023-04-24T01:51:10;3.75;;;3.28;;
44189;SDS011;29856;52.144;5.430;2023-04-24T01:53:35;3.80;;;3.50;;
44189;SDS011;29856;52.144;5.430;2023-04-24T01:56:01;4.07;;;3.47;;
44189;SDS011;29856;52.144;5.430;2023-04-24T01:58:27;3.97;;;3.58;;
44189;SDS011;29856;52.144;5.430;2023-04-24T02:00:53;5.75;;;3.92;;
44189;SDS011;29856;52.144;5.430;2023-04-24T02:03:21;5.25;;;4.00;;
44189;SDS011;29856;52.144;5.430;2023-04-24T02:05:47;5.43;;;4.03;;
44189;SDS011;29856;52.144;5.430;2023-04-24T02:08:12;6.70;;;4.32;;
44189;SDS011;29856;52.144;5.430;2023-04-24T02:10:37;5.15;;;4.35;;
44189;SDS011;29856;52.144;5.430;2023-04-24T02:13:03;4.38;;;3.90;;
44189;SDS011;29856;52.144;5.430;2023-04-24T02:15:28;7.30;;;4.90;;
44189;SDS011;29856;52.144;5.430;2023-04-24T02:17:54;5.50;;;5.00;;
44189;SDS011;29856;52.144;5.430;2023-04-24T02:20:19;6.13;;;4.43;;
44189;SDS011;29856;52.144;5.430;2023-04-24T02:22:45;5.35;;;4.30;;
44189;SDS011;29856;52.144;5.430;2023-04-24T02:25:10;5.25;;;4.57;;
44189;SDS011;29856;52.144;5.430;2023-04-24T02:27:36;6.32;;;4.43;;
44189;SDS011;29856;52.144;5.430;2023-04-24T02:30:01;5.72;;;4.53;;
44189;SDS011;29856;52.144;5.430;2023-04-24T02:32:27;4.30;;;3.90;;
44189;SDS011;29856;52.144;5.430;2023-04-24T02:34:52;4.32;;;3.92;;
44189;SDS011;29856;52.144;5.430;2023-04-24T02:37:17;4.90;;;4.40;;
44189;SDS011;29856;52.144;5.430;2023-04-24T02:39:43;3.58;;;3.35;;
44189;SDS011;29856;52.144;5.430;2023-04-24T02:42:08;3.33;;;3.03;;
44189;SDS011;29856;52.144;5.430;2023-04-24T02:44:34;3.70;;;3.40;;
44189;SDS011;29856;52.144;5.430;2023-04-24T02:46:59;5.15;;;3.92;;
44189;SDS011;29856;52.144;5.430;2023-04-24T02:49:25;4.00;;;3.60;;
44189;SDS011;29856;52.144;5.430;2023-04-24T02:51:50;3.83;;;3.38;;
44189;SDS011;29856;52.144;5.430;2023-04-24T02:54:16;3.63;;;3.33;;
44189;SDS011;29856;52.144;5.430;2023-04-24T02:56:41;4.22;;;3.83;;
44189;SDS011;29856;52.144;5.430;2023-04-24T02:59:07;4.90;;;4.40;;
44189;SDS011;29856;52.144;5.430;2023-04-24T03:01:33;5.75;;;4.45;;
44189;SDS011;29856;52.144;5.430;2023-04-24T03:03:58;4.95;;;4.43;;
44189;SDS011;29856;52.144;5.430;2023-04-24T03:06:24;5.20;;;4.70;;
44189;SDS011;29856;52.144;5.430;2023-04-24T03:08:49;4.45;;;4.05;;
44189;SDS011;29856;52.144;5.430;2023-04-24T03:11:15;5.40;;;4.90;;
44189;SDS011;29856;52.144;5.430;2023-04-24T03:13:40;5.25;;;4.60;;
44189;SDS011;29856;52.144;5.430;2023-04-24T03:16:06;5.65;;;4.88;;
44189;SDS011;29856;52.144;5.430;2023-04-24T03:18:31;4.50;;;4.20;;
44189;SDS011;29856;52.144;5.430;2023-04-24T03:20:57;5.00;;;4.60;;
44189;SDS011;29856;52.144;5.430;2023-04-24T03:23:22;4.97;;;4.57;;
44189;SDS011;29856;52.144;5.430;2023-04-24T03:25:47;4.40;;;4.00;;
44189;SDS011;29856;52.144;5.430;2023-04-24T03:28:13;5.63;;;4.35;;
44189;SDS011;29856;52.144;5.430;2023-04-24T03:30:39;7.55;;;5.10;;
44189;SDS011;29856;52.144;5.430;2023-04-24T03:33:04;6.18;;;5.15;;
44189;SDS011;29856;52.144;5.430;2023-04-24T03:35:29;4.97;;;4.47;;
44189;SDS011;29856;52.144;5.430;2023-04-24T03:37:55;5.63;;;5.03;;
44189;SDS011;29856;52.144;5.430;2023-04-24T03:40:20;4.28;;;3.85;;
44189;SDS011;29856;52.144;5.430;2023-04-24T03:42:46;4.57;;;4.05;;
44189;SDS011;29856;52.144;5.430;2023-04-24T03:45:11;4.32;;;3.90;;
44189;SDS011;29856;52.144;5.430;2023-04-24T03:47:37;7.13;;;4.90;;
44189;SDS011;29856;52.144;5.430;2023-04-24T03:50:02;4.97;;;4.57;;
44189;SDS011;29856;52.144;5.430;2023-04-24T03:52:28;4.60;;;4.20;;
44189;SDS011;29856;52.144;5.430;2023-04-24T03:54:53;4.43;;;3.88;;
44189;SDS011;29856;52.144;5.430;2023-04-24T03:57:19;3.92;;;3.63;;
44189;SDS011;29856;52.144;5.430;2023-04-24T03:59:44;4.22;;;3.83;;
44189;SDS011;29856;52.144;5.430;2023-04-24T04:02:10;3.55;;;3.17;;
44189;SDS011;29856;52.144;5.430;2023-04-24T04:04:35;4.63;;;3.95;;
44189;SDS011;29856;52.144;5.430;2023-04-24T04:07:00;8.70;;;4.30;;
44189;SDS011;29856;52.144;5.430;2023-04-24T04:09:26;5.70;;;4.22;;
44189;SDS011;29856;52.144;5.430;2023-04-24T04:11:52;5.18;;;3.95;;
44189;SDS011;29856;52.144;5.430;2023-04-24T04:14:17;5.82;;;3.90;;
44189;SDS011;29856;52.144;5.430;2023-04-24T04:16:43;4.07;;;3.33;;
44189;SDS011;29856;52.144;5.430;2023-04-24T04:19:08;2.72;;;2.53;;
44189;SDS011;29856;52.144;5.430;2023-04-24T04:21:34;2.38;;;2.17;;
44189;SDS011;29856;52.144;5.430;2023-04-24T04:23:59;2.00;;;1.88;;
44189;SDS011;29856;52.144;5.430;2023-04-24T04:26:24;1.67;;;1.58;;
44189;SDS011;29856;52.144;5.430;2023-04-24T04:28:50;1.70;;;1.60;;
44189;SDS011;29856;52.144;5.430;2023-04-24T04:31:16;2.00;;;1.90;;
44189;SDS011;29856;52.144;5.430;2023-04-24T04:33:42;4.00;;;2.10;;
44189;SDS011;29856;52.144;5.430;2023-04-24T04:36:07;1.98;;;1.80;;
44189;SDS011;29856;52.144;5.430;2023-04-24T04:38:33;1.90;;;1.80;;
44189;SDS011;29856;52.144;5.430;2023-04-24T04:40:58;1.60;;;1.50;;
44189;SDS011;29856;52.144;5.430;2023-04-24T04:43:24;3.03;;;1.90;;
44189;SDS011;29856;52.144;5.430;2023-04-24T04:45:49;2.25;;;2.05;;
44189;SDS011;29856;52.144;5.430;2023-04-24T04:48:15;2.45;;;2.25;;
44189;SDS011;29856;52.144;5.430;2023-04-24T04:50:40;2.70;;;2.00;;
44189;SDS011;29856;52.144;5.430;2023-04-24T04:53:06;3.47;;;2.50;;
44189;SDS011;29856;52.144;5.430;2023-04-24T04:55:31;3.60;;;2.70;;
44189;SDS011;29856;52.144;5.430;2023-04-24T04:57:57;4.53;;;3.95;;
44189;SDS011;29856;52.144;5.430;2023-04-24T05:00:22;4.72;;;2.85;;
44189;SDS011;29856;52.144;5.430;2023-04-24T05:02:48;5.22;;;3.33;;
44189;SDS011;29856;52.144;5.430;2023-04-24T05:05:14;4.43;;;4.03;;
44189;SDS011;29856;52.144;5.430;2023-04-24T05:07:39;6.88;;;4.43;;
44189;SDS011;29856;52.144;5.430;2023-04-24T05:10:05;5.40;;;4.90;;
44189;SDS011;29856;52.144;5.430;2023-04-24T05:12:31;4.78;;;4.25;;
44189;SDS011;29856;52.144;5.430;2023-04-24T05:14:56;5.75;;;4.93;;
44189;SDS011;29856;52.144;5.430;2023-04-24T05:17:22;5.82;;;4.45;;
44189;SDS011;29856;52.144;5.430;2023-04-24T05:19:47;7.25;;;6.25;;
44189;SDS011;29856;52.144;5.430;2023-04-24T05:22:13;6.15;;;5.22;;
44189;SDS011;29856;52.144;5.430;2023-04-24T05:24:38;6.60;;;5.47;;
44189;SDS011;29856;52.144;5.430;2023-04-24T05:27:04;4.72;;;4.18;;
44189;SDS011;29856;52.144;5.430;2023-04-24T05:29:30;5.15;;;4.65;;
44189;SDS011;29856;52.144;5.430;2023-04-24T05:31:56;7.22;;;5.57;;
44189;SDS011;29856;52.144;5.430;2023-04-24T05:34:21;6.60;;;5.65;;
44189;SDS011;29856;52.144;5.430;2023-04-24T05:36:47;5.50;;;5.00;;
44189;SDS011;29856;52.144;5.430;2023-04-24T05:39:13;7.38;;;4.63;;
44189;SDS011;29856;52.144;5.430;2023-04-24T05:41:38;6.43;;;5.00;;
44189;SDS011;29856;52.144;5.430;2023-04-24T05:44:04;5.32;;;4.68;;
44189;SDS011;29856;52.144;5.430;2023-04-24T05:46:29;8.98;;;5.47;;
44189;SDS011;29856;52.144;5.430;2023-04-24T05:48:55;5.95;;;5.28;;
44189;SDS011;29856;52.144;5.430;2023-04-24T05:51:21;9.10;;;5.90;;
44189;SDS011;29856;52.144;5.430;2023-04-24T05:53:46;7.63;;;4.75;;
44189;SDS011;29856;52.144;5.430;2023-04-24T05:56:11;6.70;;;4.65;;
44189;SDS011;29856;52.144;5.430;2023-04-24T05:58:37;5.80;;;4.18;;
44189;SDS011;29856;52.144;5.430;2023-04-24T06:01:03;3.45;;;3.15;;
44189;SDS011;29856;52.144;5.430;2023-04-24T06:03:28;2.88;;;2.55;;
44189;SDS011;29856;52.144;5.430;2023-04-24T06:05:54;2.47;;;2.30;;
44189;SDS011;29856;52.144;5.430;2023-04-24T06:08:19;2.20;;;1.80;;
44189;SDS011;29856;52.144;5.430;2023-04-24T06:10:45;2.42;;;2.22;;
44189;SDS011;29856;52.144;5.430;2023-04-24T06:13:10;4.47;;;2.28;;
44189;SDS011;29856;52.144;5.430;2023-04-24T06:15:36;2.63;;;2.30;;
44189;SDS011;29856;52.144;5.430;2023-04-24T06:18:03;4.05;;;2.40;;
44189;SDS011;29856;52.144;5.430;2023-04-24T06:20:28;2.60;;;2.40;;
44189;SDS011;29856;52.144;5.430;2023-04-24T06:22:54;4.35;;;2.20;;
44189;SDS011;29856;52.144;5.430;2023-04-24T06:25:19;3.25;;;1.83;;
44189;SDS011;29856;52.144;5.430;2023-04-24T06:27:45;2.42;;;1.70;;
44189;SDS011;29856;52.144;5.430;2023-04-24T06:30:11;2.85;;;1.10;;
44189;SDS011;29856;52.144;5.430;2023-04-24T06:32:36;1.40;;;1.25;;
44189;SDS011;29856;52.144;5.430;2023-04-24T06:35:02;2.20;;;1.13;;
44189;SDS011;29856;52.144;5.430;2023-04-24T06:37:27;1.65;;;1.25;;
44189;SDS011;29856;52.144;5.430;2023-04-24T06:39:53;2.38;;;1.67;;
44189;SDS011;29856;52.144;5.430;2023-04-24T06:42:19;2.10;;;1.90;;
44189;SDS011;29856;52.144;5.430;2023-04-24T06:44:44;4.35;;;3.47;;
44189;SDS011;29856;52.144;5.430;2023-04-24T06:47:10;5.45;;;4.50;;
44189;SDS011;29856;52.144;5.430;2023-04-24T06:49:36;5.70;;;5.07;;
44189;SDS011;29856;52.144;5.430;2023-04-24T06:52:02;11.88;;;7.35;;
44189;SDS011;29856;52.144;5.430;2023-04-24T06:54:28;12.85;;;7.65;;
44189;SDS011;29856;52.144;5.430;2023-04-24T06:56:54;13.05;;;7.80;;
44189;SDS011;29856;52.144;5.430;2023-04-24T06:59:19;12.57;;;8.30;;
44189;SDS011;29856;52.144;5.430;2023-04-24T07:01:45;11.98;;;8.27;;
44189;SDS011;29856;52.144;5.430;2023-04-24T07:04:10;10.55;;;6.40;;
44189;SDS011;29856;52.144;5.430;2023-04-24T07:06:36;15.35;;;9.35;;
44189;SDS011;29856;52.144;5.430;2023-04-24T07:09:01;14.52;;;8.45;;
44189;SDS011;29856;52.144;5.430;2023-04-24T07:11:27;17.48;;;9.27;;
44189;SDS011;29856;52.144;5.430;2023-04-24T07:13:52;19.90;;;10.52;;
44189;SDS011;29856;52.144;5.430;2023-04-24T07:16:18;17.42;;;10.18;;
44189;SDS011;29856;52.144;5.430;2023-04-24T07:18:43;21.80;;;10.10;;
44189;SDS011;29856;52.144;5.430;2023-04-24T07:21:09;21.38;;;10.52;;
44189;SDS011;29856;52.144;5.430;2023-04-24T07:23:34;17.65;;;9.27;;
44189;SDS011;29856;52.144;5.430;2023-04-24T07:26:00;14.82;;;7.90;;
44189;SDS011;29856;52.144;5.430;2023-04-24T07:28:25;14.98;;;8.50;;
44189;SDS011;29856;52.144;5.430;2023-04-24T07:30:51;15.50;;;7.93;;
44189;SDS011;29856;52.144;5.430;2023-04-24T07:33:16;15.65;;;7.07;;
44189;SDS011;29856;52.144;5.430;2023-04-24T07:35:42;10.07;;;5.63;;
44189;SDS011;29856;52.144;5.430;2023-04-24T07:38:07;13.18;;;7.85;;
44189;SDS011;29856;52.144;5.430;2023-04-24T07:40:32;14.10;;;7.15;;
44189;SDS011;29856;52.144;5.430;2023-04-24T07:42:58;18.50;;;8.15;;
44189;SDS011;29856;52.144;5.430;2023-04-24T07:45:24;16.92;;;8.20;;
44189;SDS011;29856;52.144;5.430;2023-04-24T07:47:50;15.18;;;8.02;;
44189;SDS011;29856;52.144;5.430;2023-04-24T07:50:15;14.35;;;7.63;;
44189;SDS011;29856;52.144;5.430;2023-04-24T07:52:41;14.85;;;8.00;;
44189;SDS011;29856;52.144;5.430;2023-04-24T07:55:06;16.27;;;7.43;;
44189;SDS011;29856;52.144;5.430;2023-04-24T07:57:32;14.98;;;7.10;;
44189;SDS011;29856;52.144;5.430;2023-04-24T07:59:57;12.98;;;7.03;;
44189;SDS011;29856;52.144;5.430;2023-04-24T08:02:23;14.95;;;7.68;;
44189;SDS011;29856;52.144;5.430;2023-04-24T08:04:48;23.95;;;7.45;;
44189;SDS011;29856;52.144;5.430;2023-04-24T08:07:14;24.00;;;8.88;;
44189;SDS011;29856;52.144;5.430;2023-04-24T08:09:39;17.52;;;8.40;;
44189;SDS011;29856;52.144;5.430;2023-04-24T08:12:04;20.08;;;7.78;;
44189;SDS011;29856;52.144;5.430;2023-04-24T08:14:30;14.35;;;6.53;;
44189;SDS011;29856;52.144;5.430;2023-04-24T08:16:56;12.07;;;5.40;;
44189;SDS011;29856;52.144;5.430;2023-04-24T08:19:21;12.68;;;5.20;;
44189;SDS011;29856;52.144;5.430;2023-04-24T08:21:47;15.77;;;5.00;;
44189;SDS011;29856;52.144;5.430;2023-04-24T08:24:12;18.45;;;5.18;;
44189;SDS011;29856;52.144;5.430;2023-04-24T08:26:38;23.40;;;7.10;;
44189;SDS011;29856;52.144;5.430;2023-04-24T08:29:04;14.13;;;5.40;;
44189;SDS011;29856;52.144;5.430;2023-04-24T08:31:30;13.23;;;4.88;;
44189;SDS011;29856;52.144;5.430;2023-04-24T08:33:55;13.93;;;4.50;;
44189;SDS011;29856;52.144;5.430;2023-04-24T08:36:20;14.55;;;4.10;;
44189;SDS011;29856;52.144;5.430;2023-04-24T08:38:46;16.67;;;3.53;;
44189;SDS011;29856;52.144;5.430;2023-04-24T08:41:11;15.52;;;5.10;;
44189;SDS011;29856;52.144;5.430;2023-04-24T08:43:39;19.05;;;5.03;;
44189;SDS011;29856;52.144;5.430;2023-04-24T08:46:06;21.40;;;3.97;;
44189;SDS011;29856;52.144;5.430;2023-04-24T08:48:31;17.60;;;4.00;;
44189;SDS011;29856;52.144;5.430;2023-04-24T08:50:58;27.27;;;4.57;;
44189;SDS011;29856;52.144;5.430;2023-04-24T08:53:24;17.55;;;3.70;;
44189;SDS011;29856;52.144;5.430;2023-04-24T08:55:50;17.65;;;4.13;;
44189;SDS011;29856;52.144;5.430;2023-04-24T08:58:18;20.23;;;4.63;;
44189;SDS011;29856;52.144;5.430;2023-04-24T09:00:44;13.95;;;3.53;;
44189;SDS011;29856;52.144;5.430;2023-04-24T09:03:10;11.85;;;2.53;;
44189;SDS011;29856;52.144;5.430;2023-04-24T09:05:35;14.70;;;3.13;;
44189;SDS011;29856;52.144;5.430;2023-04-24T09:08:01;17.33;;;3.20;;
44189;SDS011;29856;52.144;5.430;2023-04-24T09:10:29;14.00;;;3.05;;
44189;SDS011;29856;52.144;5.430;2023-04-24T09:12:54;16.10;;;3.42;;
44189;SDS011;29856;52.144;5.430;2023-04-24T09:15:21;12.63;;;2.88;;
44189;SDS011;29856;52.144;5.430;2023-04-24T09:17:47;13.00;;;3.03;;
44189;SDS011;29856;52.144;5.430;2023-04-24T09:20:12;16.27;;;3.17;;
44189;SDS011;29856;52.144;5.430;2023-04-24T09:22:38;14.52;;;3.58;;
44189;SDS011;29856;52.144;5.430;2023-04-24T09:25:07;21.08;;;4.50;;
44189;SDS011;29856;52.144;5.430;2023-04-24T09:27:33;19.38;;;3.20;;
44189;SDS011;29856;52.144;5.430;2023-04-24T09:29:59;15.10;;;2.88;;
44189;SDS011;29856;52.144;5.430;2023-04-24T09:32:25;17.40;;;4.22;;
44189;SDS011;29856;52.144;5.430;2023-04-24T09:37:45;15.57;;;2.75;;
44189;SDS011;29856;52.144;5.430;2023-04-24T09:40:15;17.17;;;3.15;;
44189;SDS011;29856;52.144;5.430;2023-04-24T09:42:52;14.10;;;3.75;;
44189;SDS011;29856;52.144;5.430;2023-04-24T09:45:18;9.90;;;2.88;;
44189;SDS011;29856;52.144;5.430;2023-04-24T09:47:45;11.15;;;2.63;;
44189;SDS011;29856;52.144;5.430;2023-04-24T09:52:41;10.73;;;3.08;;
44189;SDS011;29856;52.144;5.430;2023-04-24T09:55:15;14.07;;;4.25;;
44189;SDS011;29856;52.144;5.430;2023-04-24T10:00:21;13.52;;;3.40;;
44189;SDS011;29856;52.144;5.430;2023-04-24T10:02:53;17.58;;;3.20;;
44189;SDS011;29856;52.144;5.430;2023-04-24T10:05:22;11.18;;;2.63;;
44189;SDS011;29856;52.144;5.430;2023-04-24T10:07:49;12.18;;;3.13;;
44189;SDS011;29856;52.144;5.430;2023-04-24T10:10:14;13.27;;;2.53;;
44189;SDS011;29856;52.144;5.430;2023-04-24T10:12:41;10.25;;;2.53;;
44189;SDS011;29856;52.144;5.430;2023-04-24T10:15:07;12.15;;;2.67;;
44189;SDS011;29856;52.144;5.430;2023-04-24T10:17:35;11.80;;;2.75;;
44189;SDS011;29856;52.144;5.430;2023-04-24T10:20:01;9.38;;;2.72;;
44189;SDS011;29856;52.144;5.430;2023-04-24T10:22:27;7.13;;;2.30;;
44189;SDS011;29856;52.144;5.430;2023-04-24T10:24:54;10.63;;;2.00;;
44189;SDS011;29856;52.144;5.430;2023-04-24T10:27:19;8.55;;;2.00;;
44189;SDS011;29856;52.144;5.430;2023-04-24T10:29:46;8.70;;;2.05;;
44189;SDS011;29856;52.144;5.430;2023-04-24T10:32:13;7.88;;;1.70;;
44189;SDS011;29856;52.144;5.430;2023-04-24T10:34:38;8.57;;;1.67;;
44189;SDS011;29856;52.144;5.430;2023-04-24T10:37:04;3.92;;;1.30;;
44189;SDS011;29856;52.144;5.430;2023-04-24T10:39:31;10.82;;;1.40;;
44189;SDS011;29856;52.144;5.430;2023-04-24T10:41:57;2.75;;;1.10;;
44189;SDS011;29856;52.144;5.430;2023-04-24T10:44:23;5.40;;;1.58;;
44189;SDS011;29856;52.144;5.430;2023-04-24T10:46:52;3.65;;;1.20;;
44189;SDS011;29856;52.144;5.430;2023-04-24T10:49:27;4.13;;;0.98;;
44189;SDS011;29856;52.144;5.430;2023-04-24T10:51:54;2.97;;;1.50;;
44189;SDS011;29856;52.144;5.430;2023-04-24T10:59:45;5.32;;;1.00;;
44189;SDS011;29856;52.144;5.430;2023-04-24T11:02:13;5.43;;;1.15;;
44189;SDS011;29856;52.144;5.430;2023-04-24T11:04:40;5.88;;;1.35;;
44189;SDS011;29856;52.144;5.430;2023-04-24T11:07:05;9.55;;;1.25;;
44189;SDS011;29856;52.144;5.430;2023-04-24T11:09:31;2.85;;;1.00;;
44189;SDS011;29856;52.144;5.430;2023-04-24T11:12:07;7.00;;;2.25;;
44189;SDS011;29856;52.144;5.430;2023-04-24T11:20:06;7.60;;;1.58;;
44189;SDS011;29856;52.144;5.430;2023-04-24T11:22:33;7.85;;;1.60;;
44189;SDS011;29856;52.144;5.430;2023-04-24T11:24:59;4.45;;;1.50;;
44189;SDS011;29856;52.144;5.430;2023-04-24T11:27:25;3.60;;;1.08;;
44189;SDS011;29856;52.144;5.430;2023-04-24T11:30:06;6.63;;;1.30;;
44189;SDS011;29856;52.144;5.430;2023-04-24T11:37:29;8.77;;;1.58;;
44189;SDS011;29856;52.144;5.430;2023-04-24T11:40:00;4.55;;;1.20;;
44189;SDS011;29856;52.144;5.430;2023-04-24T11:42:26;4.65;;;1.25;;
44189;SDS011;29856;52.144;5.430;2023-04-24T11:44:53;5.70;;;1.55;;
44189;SDS011;29856;52.144;5.430;2023-04-24T11:47:19;7.53;;;1.20;;
44189;SDS011;29856;52.144;5.430;2023-04-24T11:49:45;3.45;;;1.00;;
44189;SDS011;29856;52.144;5.430;2023-04-24T11:52:10;4.95;;;1.83;;
44189;SDS011;29856;52.144;5.430;2023-04-24T11:54:46;3.10;;;0.88;;
44189;SDS011;29856;52.144;5.430;2023-04-24T11:57:12;1.92;;;0.80;;
44189;SDS011;29856;52.144;5.430;2023-04-24T11:59:38;2.20;;;0.50;;
44189;SDS011;29856;52.144;5.430;2023-04-24T12:02:03;3.70;;;1.25;;
44189;SDS011;29856;52.144;5.430;2023-04-24T12:04:37;3.63;;;0.75;;
44189;SDS011;29856;52.144;5.430;2023-04-24T12:07:05;5.10;;;0.70;;
44189;SDS011;29856;52.144;5.430;2023-04-24T12:09:44;2.40;;;0.88;;
44189;SDS011;29856;52.144;5.430;2023-04-24T12:12:11;2.22;;;1.13;;
44189;SDS011;29856;52.144;5.430;2023-04-24T12:14:44;3.15;;;1.00;;
44189;SDS011;29856;52.144;5.430;2023-04-24T12:17:14;4.72;;;0.85;;
44189;SDS011;29856;52.144;5.430;2023-04-24T12:19:44;5.18;;;1.00;;
44189;SDS011;29856;52.144;5.430;2023-04-24T12:22:11;5.57;;;1.00;;
44189;SDS011;29856;52.144;5.430;2023-04-24T12:24:54;7.35;;;1.83;;
44189;SDS011;29856;52.144;5.430;2023-04-24T12:27:21;4.85;;;1.40;;
44189;SDS011;29856;52.144;5.430;2023-04-24T12:29:56;2.33;;;0.88;;
44189;SDS011;29856;52.144;5.430;2023-04-24T12:32:23;7.05;;;1.35;;
44189;SDS011;29856;52.144;5.430;2023-04-24T12:34:49;7.80;;;1.38;;
44189;SDS011;29856;52.144;5.430;2023-04-24T12:37:15;7.03;;;1.42;;
44189;SDS011;29856;52.144;5.430;2023-04-24T12:39:44;5.80;;;1.35;;
44189;SDS011;29856;52.144;5.430;2023-04-24T12:42:32;5.28;;;1.27;;
44189;SDS011;29856;52.144;5.430;2023-04-24T12:44:59;6.05;;;1.50;;
44189;SDS011;29856;52.144;5.430;2023-04-24T12:47:27;6.07;;;1.80;;
44189;SDS011;29856;52.144;5.430;2023-04-24T12:49:53;6.72;;;1.50;;
44189;SDS011;29856;52.144;5.430;2023-04-24T12:52:19;9.27;;;2.25;;
44189;SDS011;29856;52.144;5.430;2023-04-24T12:54:44;9.55;;;1.98;;
44189;SDS011;29856;52.144;5.430;2023-04-24T12:57:10;10.70;;;1.92;;
44189;SDS011;29856;52.144;5.430;2023-04-24T12:59:36;11.02;;;2.45;;
44189;SDS011;29856;52.144;5.430;2023-04-24T13:02:01;8.30;;;2.30;;
44189;SDS011;29856;52.144;5.430;2023-04-24T13:04:27;12.07;;;2.22;;
44189;SDS011;29856;52.144;5.430;2023-04-24T13:06:52;10.30;;;2.28;;
44189;SDS011;29856;52.144;5.430;2023-04-24T13:09:18;12.95;;;1.92;;
44189;SDS011;29856;52.144;5.430;2023-04-24T13:11:43;12.07;;;2.80;;
44189;SDS011;29856;52.144;5.430;2023-04-24T13:14:09;12.27;;;2.83;;
44189;SDS011;29856;52.144;5.430;2023-04-24T13:16:34;23.08;;;3.25;;
44189;SDS011;29856;52.144;5.430;2023-04-24T13:19:00;16.35;;;3.17;;
44189;SDS011;29856;52.144;5.430;2023-04-24T13:21:25;14.05;;;2.85;;
44189;SDS011;29856;52.144;5.430;2023-04-24T13:23:51;18.42;;;3.50;;
44189;SDS011;29856;52.144;5.430;2023-04-24T13:26:16;15.85;;;3.15;;
44189;SDS011;29856;52.144;5.430;2023-04-24T13:28:42;12.95;;;3.20;;
44189;SDS011;29856;52.144;5.430;2023-04-24T13:31:07;14.50;;;3.03;;
44189;SDS011;29856;52.144;5.430;2023-04-24T13:33:33;12.05;;;2.40;;
44189;SDS011;29856;52.144;5.430;2023-04-24T13:35:58;17.42;;;3.17;;
44189;SDS011;29856;52.144;5.430;2023-04-24T13:38:24;12.23;;;2.30;;
44189;SDS011;29856;52.144;5.430;2023-04-24T13:40:49;15.25;;;2.58;;
44189;SDS011;29856;52.144;5.430;2023-04-24T13:43:14;12.70;;;2.80;;
44189;SDS011;29856;52.144;5.430;2023-04-24T13:45:40;11.93;;;3.17;;
44189;SDS011;29856;52.144;5.430;2023-04-24T13:48:05;11.40;;;2.70;;
44189;SDS011;29856;52.144;5.430;2023-04-24T13:50:31;14.32;;;2.55;;
44189;SDS011;29856;52.144;5.430;2023-04-24T13:52:56;16.15;;;3.03;;
44189;SDS011;29856;52.144;5.430;2023-04-24T13:55:22;14.40;;;2.95;;
44189;SDS011;29856;52.144;5.430;2023-04-24T13:57:47;16.67;;;3.42;;
44189;SDS011;29856;52.144;5.430;2023-04-24T14:00:14;15.27;;;3.20;;
44189;SDS011;29856;52.144;5.430;2023-04-24T14:02:40;19.60;;;3.30;;
44189;SDS011;29856;52.144;5.430;2023-04-24T14:05:05;20.35;;;3.58;;
44189;SDS011;29856;52.144;5.430;2023-04-24T14:07:31;12.18;;;2.97;;
44189;SDS011;29856;52.144;5.430;2023-04-24T14:09:56;12.55;;;3.17;;
44189;SDS011;29856;52.144;5.430;2023-04-24T14:12:22;19.15;;;3.50;;
44189;SDS011;29856;52.144;5.430;2023-04-24T14:14:48;20.90;;;4.15;;
44189;SDS011;29856;52.144;5.430;2023-04-24T14:17:14;13.50;;;3.15;;
44189;SDS011;29856;52.144;5.430;2023-04-24T14:19:39;8.57;;;2.45;;
44189;SDS011;29856;52.144;5.430;2023-04-24T14:22:06;13.18;;;2.90;;
44189;SDS011;29856;52.144;5.430;2023-04-24T14:24:32;11.65;;;3.58;;
44189;SDS011;29856;52.144;5.430;2023-04-24T14:26:57;9.85;;;2.92;;
44189;SDS011;29856;52.144;5.430;2023-04-24T14:29:22;18.40;;;3.40;;
44189;SDS011;29856;52.144;5.430;2023-04-24T14:31:48;18.55;;;3.78;;
44189;SDS011;29856;52.144;5.430;2023-04-24T14:34:14;14.25;;;3.25;;
44189;SDS011;29856;52.144;5.430;2023-04-24T14:36:39;10.73;;;2.90;;
44189;SDS011;29856;52.144;5.430;2023-04-24T14:39:06;11.50;;;3.45;;
44189;SDS011;29856;52.144;5.430;2023-04-24T14:41:32;12.45;;;3.28;;
44189;SDS011;29856;52.144;5.430;2023-04-24T14:43:58;11.07;;;2.83;;
44189;SDS011;29856;52.144;5.430;2023-04-24T14:46:23;15.25;;;4.03;;
44189;SDS011;29856;52.144;5.430;2023-04-24T14:48:49;12.48;;;3.72;;
44189;SDS011;29856;52.144;5.430;2023-04-24T14:51:14;16.63;;;3.45;;
44189;SDS011;29856;52.144;5.430;2023-04-24T14:53:41;18.00;;;3.72;;
44189;SDS011;29856;52.144;5.430;2023-04-24T14:56:06;16.13;;;3.03;;
44189;SDS011;29856;52.144;5.430;2023-04-24T14:58:32;13.43;;;3.58;;
44189;SDS011;29856;52.144;5.430;2023-04-24T15:00:57;18.75;;;4.07;;